createdAt,value
2019-03-24T00:00:54.617Z,15.80
2019-03-24T00:03:26.895Z,18.00
2019-03-24T00:05:58.596Z,19.57
2019-03-24T00:08:26.902Z,22.40
2019-03-24T00:10:55.257Z,15.20
2019-03-24T00:13:24.958Z,12.47
2019-03-24T00:15:53.451Z,20.20
2019-03-24T00:18:21.757Z,18.77
2019-03-24T00:20:50.301Z,17.93
2019-03-24T00:23:18.678Z,17.43
2019-03-24T00:25:46.957Z,18.73
2019-03-24T00:28:15.272Z,19.70
2019-03-24T00:30:43.618Z,18.47
2019-03-24T00:33:11.934Z,21.17
2019-03-24T00:35:40.215Z,26.97
2019-03-24T00:38:08.598Z,21.70
2019-03-24T00:40:37.020Z,24.80
2019-03-24T00:43:05.350Z,26.10
2019-03-24T00:45:37.133Z,25.33
2019-03-24T00:48:03.716Z,21.87
2019-03-24T00:50:32.175Z,25.10
2019-03-24T00:53:00.454Z,17.77
2019-03-24T00:55:28.776Z,27.00
2019-03-24T00:57:57.154Z,26.53
2019-03-24T01:00:44.251Z,20.93
2019-03-24T01:03:12.852Z,27.60
2019-03-24T01:05:41.200Z,21.60
2019-03-24T01:08:09.575Z,23.60
2019-03-24T01:10:37.954Z,23.17
2019-03-24T01:13:06.272Z,25.93
2019-03-24T01:15:34.630Z,32.50
2019-03-24T01:18:03.113Z,23.80
2019-03-24T01:20:31.567Z,21.00
2019-03-24T01:22:59.911Z,23.70
2019-03-24T01:25:28.234Z,19.90
2019-03-24T01:27:56.596Z,22.53
2019-03-24T01:30:24.916Z,24.43
2019-03-24T01:32:53.346Z,21.97
2019-03-24T01:35:21.714Z,29.33
2019-03-24T01:37:50.033Z,30.73
2019-03-24T01:40:18.659Z,24.70
2019-03-24T01:42:46.967Z,26.00
2019-03-24T01:45:15.356Z,24.97
2019-03-24T01:47:43.641Z,25.10
2019-03-24T01:50:12.339Z,29.17
2019-03-24T01:52:40.875Z,18.13
2019-03-24T01:55:09.356Z,31.27
2019-03-24T01:57:37.722Z,24.57
2019-03-24T02:00:07.006Z,22.33
2019-03-24T02:02:35.288Z,18.83
2019-03-24T02:05:05.152Z,20.83
2019-03-24T02:07:33.442Z,20.97
2019-03-24T02:10:01.800Z,23.47
2019-03-24T02:12:30.231Z,22.40
2019-03-24T02:14:58.685Z,21.63
2019-03-24T02:17:26.959Z,26.93
2019-03-24T02:19:55.364Z,25.77
2019-03-24T02:22:23.667Z,22.70
2019-03-24T02:24:51.980Z,23.50
2019-03-24T02:27:20.356Z,24.00
2019-03-24T02:29:48.643Z,23.37
2019-03-24T02:32:16.939Z,23.47
2019-03-24T02:34:45.227Z,24.40
2019-03-24T02:37:13.546Z,26.83
2019-03-24T02:39:41.821Z,22.83
2019-03-24T02:42:10.198Z,20.90
2019-03-24T02:44:38.907Z,29.13
2019-03-24T02:47:07.208Z,25.77
2019-03-24T02:49:35.528Z,26.40
2019-03-24T02:52:03.836Z,33.60
2019-03-24T02:54:32.112Z,29.23
2019-03-24T02:57:00.496Z,29.23
2019-03-24T02:59:28.767Z,34.77
2019-03-24T03:01:57.083Z,28.17
2019-03-24T03:04:25.519Z,31.07
2019-03-24T03:06:53.833Z,31.27
2019-03-24T03:09:22.128Z,31.33
2019-03-24T03:11:50.495Z,31.53
2019-03-24T03:14:18.799Z,31.40
2019-03-24T03:16:47.217Z,32.00
2019-03-24T03:19:15.582Z,41.30
2019-03-24T03:21:43.935Z,28.93
2019-03-24T03:24:12.333Z,29.80
2019-03-24T03:26:40.682Z,31.53
2019-03-24T03:29:08.993Z,27.50
2019-03-24T03:31:37.283Z,28.37
2019-03-24T03:34:05.655Z,32.43
2019-03-24T03:36:33.940Z,37.53
2019-03-24T03:39:02.359Z,33.50
2019-03-24T03:41:30.653Z,31.73
2019-03-24T03:43:59.038Z,32.00
2019-03-24T03:46:27.380Z,37.03
2019-03-24T03:48:55.700Z,27.00
2019-03-24T03:51:23.991Z,26.60
2019-03-24T03:53:52.315Z,33.87
2019-03-24T03:56:20.607Z,28.57
2019-03-24T03:58:49.067Z,26.27
2019-03-24T04:01:18.651Z,33.83
2019-03-24T04:03:47.033Z,31.23
2019-03-24T04:06:15.317Z,26.17
2019-03-24T04:08:43.677Z,24.73
2019-03-24T04:11:11.956Z,25.20
2019-03-24T04:13:40.362Z,26.77
2019-03-24T04:16:08.710Z,33.70
2019-03-24T04:18:37.002Z,27.97
2019-03-24T04:21:05.980Z,28.97
2019-03-24T04:23:34.391Z,31.27
2019-03-24T04:26:02.839Z,25.20
2019-03-24T04:28:31.150Z,31.70
2019-03-24T04:30:59.554Z,23.40
2019-03-24T04:33:27.851Z,25.53
2019-03-24T04:35:56.174Z,35.13
2019-03-24T04:38:24.503Z,24.27
2019-03-24T04:40:52.896Z,31.63
2019-03-24T04:43:22.726Z,34.10
2019-03-24T04:45:51.159Z,24.67
2019-03-24T04:48:19.443Z,29.93
2019-03-24T04:50:47.762Z,23.60
2019-03-24T04:53:16.045Z,24.77
2019-03-24T04:55:44.420Z,33.47
2019-03-24T04:58:12.776Z,19.67
2019-03-24T05:00:41.152Z,28.30
2019-03-24T05:03:09.504Z,29.20
2019-03-24T05:05:38.372Z,20.67
2019-03-24T05:08:08.184Z,25.27
2019-03-24T05:10:36.491Z,24.50
2019-03-24T05:13:04.768Z,27.27
2019-03-24T05:15:33.164Z,25.53
2019-03-24T05:18:01.447Z,27.07
2019-03-24T05:20:29.736Z,22.77
2019-03-24T05:22:58.037Z,25.60
2019-03-24T05:25:26.313Z,24.93
2019-03-24T05:27:54.703Z,29.90
2019-03-24T05:30:22.990Z,26.83
2019-03-24T05:32:51.288Z,21.53
2019-03-24T05:35:19.565Z,21.30
2019-03-24T05:37:47.868Z,24.20
2019-03-24T05:40:16.237Z,19.07
2019-03-24T05:42:44.621Z,25.63
2019-03-24T05:45:12.972Z,27.93
2019-03-24T05:47:41.245Z,23.07
2019-03-24T05:50:09.837Z,23.37
2019-03-24T05:52:38.194Z,25.77
2019-03-24T05:55:06.987Z,16.97
2019-03-24T05:57:35.790Z,21.10
2019-03-24T06:00:06.714Z,25.97
2019-03-24T06:02:35.651Z,19.53
2019-03-24T06:05:05.480Z,25.73
2019-03-24T06:07:34.235Z,24.07
2019-03-24T06:10:05.188Z,24.77
2019-03-24T06:12:33.956Z,20.20
2019-03-24T06:15:02.937Z,21.23
2019-03-24T06:17:31.720Z,21.30
2019-03-24T06:20:00.617Z,26.50
2019-03-24T06:22:29.445Z,31.03
2019-03-24T06:24:58.215Z,18.63
2019-03-24T06:27:27.000Z,26.07
2019-03-24T06:29:55.826Z,23.10
2019-03-24T06:32:24.767Z,27.93
2019-03-24T06:34:53.567Z,23.87
2019-03-24T06:37:22.438Z,23.90
2019-03-24T06:39:51.186Z,27.53
2019-03-24T06:42:19.965Z,19.60
2019-03-24T06:44:48.841Z,25.83
2019-03-24T06:47:17.638Z,23.83
2019-03-24T06:49:46.496Z,31.20
2019-03-24T06:52:15.213Z,27.43
2019-03-24T06:54:43.958Z,27.63
2019-03-24T06:57:12.733Z,26.17
2019-03-24T06:59:41.487Z,24.60
2019-03-24T07:02:10.300Z,27.47
2019-03-24T07:04:39.091Z,38.67
2019-03-24T07:07:07.900Z,26.37
2019-03-24T07:09:36.683Z,28.30
2019-03-24T07:12:05.551Z,28.47
2019-03-24T07:14:34.349Z,26.70
2019-03-24T07:17:03.314Z,24.47
2019-03-24T07:19:32.205Z,25.77
2019-03-24T07:22:01.025Z,24.77
2019-03-24T07:24:29.808Z,24.00
2019-03-24T07:26:58.641Z,29.47
2019-03-24T07:29:27.437Z,24.80
2019-03-24T07:31:56.363Z,28.63
2019-03-24T07:34:25.185Z,27.00
2019-03-24T07:36:54.159Z,32.03
2019-03-24T07:39:22.981Z,26.23
2019-03-24T07:41:51.889Z,26.50
2019-03-24T07:44:20.737Z,32.43
2019-03-24T07:46:49.655Z,23.63
2019-03-24T07:49:18.692Z,25.93
2019-03-24T07:51:47.476Z,25.57
2019-03-24T07:54:16.210Z,19.83
2019-03-24T07:56:46.549Z,25.23
2019-03-24T07:59:15.370Z,24.67
2019-03-24T08:01:44.119Z,22.70
2019-03-24T08:04:12.905Z,21.00
2019-03-24T08:06:41.626Z,18.70
2019-03-24T08:09:10.491Z,21.33
2019-03-24T08:11:39.310Z,25.57
2019-03-24T08:14:08.222Z,26.63
2019-03-24T08:16:37.015Z,25.53
2019-03-24T08:19:06.404Z,22.90
2019-03-24T08:21:35.162Z,26.00
2019-03-24T08:24:04.033Z,23.67
2019-03-24T08:26:32.811Z,21.93
2019-03-24T08:29:01.541Z,22.33
2019-03-24T08:31:30.319Z,28.67
2019-03-24T08:33:59.135Z,20.77
2019-03-24T08:36:27.979Z,26.13
2019-03-24T08:38:56.773Z,23.83
2019-03-24T08:41:25.653Z,23.93
2019-03-24T08:43:54.456Z,29.67
2019-03-24T08:46:23.182Z,34.73
2019-03-24T08:48:51.995Z,47.30
2019-03-24T08:51:20.763Z,58.67
2019-03-24T08:53:49.486Z,48.57
2019-03-24T08:56:18.234Z,52.70
2019-03-24T08:58:46.986Z,46.77
2019-03-24T09:01:15.690Z,41.67
2019-03-24T09:03:44.416Z,48.60
2019-03-24T09:06:13.237Z,30.27
2019-03-24T09:08:41.957Z,26.80
2019-03-24T09:11:10.700Z,31.13
2019-03-24T09:13:39.484Z,27.30
2019-03-24T09:16:08.243Z,27.83
2019-03-24T09:18:37.039Z,29.13
2019-03-24T09:21:05.836Z,18.63
2019-03-24T09:23:34.625Z,30.73
2019-03-24T09:26:03.453Z,26.50
2019-03-24T09:28:32.159Z,25.67
2019-03-24T09:31:00.927Z,27.63
2019-03-24T09:33:29.632Z,26.87
2019-03-24T09:35:58.371Z,29.77
2019-03-24T09:38:27.298Z,30.30
2019-03-24T09:40:56.028Z,27.50
2019-03-24T09:43:24.749Z,21.13
2019-03-24T09:45:53.487Z,19.33
2019-03-24T09:48:22.244Z,26.30
2019-03-24T09:50:51.090Z,24.80
2019-03-24T09:53:19.829Z,25.17
2019-03-24T09:55:48.580Z,23.60
2019-03-24T09:58:17.301Z,27.53
2019-03-24T10:00:46.026Z,21.77
2019-03-24T10:03:14.839Z,17.13
2019-03-24T10:05:43.548Z,17.37
2019-03-24T10:08:12.882Z,18.23
2019-03-24T10:10:41.693Z,16.73
2019-03-24T10:13:10.425Z,19.77
2019-03-24T10:15:39.145Z,17.50
2019-03-24T10:18:07.964Z,22.57
2019-03-24T10:20:36.683Z,18.37
2019-03-24T10:23:05.562Z,15.87
2019-03-24T10:25:34.351Z,17.43
2019-03-24T10:28:03.090Z,14.73
2019-03-24T10:30:37.820Z,11.40
2019-03-24T10:33:06.557Z,10.80
2019-03-24T10:35:35.345Z,12.47
2019-03-24T10:38:04.159Z,12.73
2019-03-24T10:40:33.113Z,14.93
2019-03-24T10:43:01.936Z,13.83
2019-03-24T10:45:30.732Z,14.90
2019-03-24T10:47:59.469Z,13.70
2019-03-24T10:50:28.189Z,16.27
2019-03-24T10:53:23.037Z,16.67
2019-03-24T10:56:04.388Z,19.00
2019-03-24T10:58:45.585Z,12.60
2019-03-24T11:01:27.055Z,16.17
2019-03-24T11:04:08.410Z,13.13
2019-03-24T11:06:49.601Z,12.33
2019-03-24T11:09:30.773Z,10.93
2019-03-24T11:12:12.143Z,10.83
2019-03-24T11:14:53.423Z,9.67
2019-03-24T11:17:34.705Z,14.07
2019-03-24T11:20:13.815Z,12.87
2019-03-24T11:23:01.900Z,10.80
2019-03-24T11:25:50.083Z,12.03
2019-03-24T11:28:38.191Z,12.40
2019-03-24T11:31:26.290Z,12.80
2019-03-24T11:34:14.734Z,16.27
2019-03-24T11:37:02.882Z,14.10
2019-03-24T11:39:51.105Z,12.27
2019-03-24T11:42:39.244Z,11.93
2019-03-24T11:45:20.596Z,10.23
2019-03-24T11:48:01.991Z,15.43
2019-03-24T11:50:43.356Z,11.63
2019-03-24T11:53:24.777Z,10.53
2019-03-24T11:56:06.084Z,12.37
2019-03-24T11:58:47.463Z,12.27
2019-03-24T12:01:37.961Z,12.07
2019-03-24T12:04:11.413Z,11.87
2019-03-24T12:06:52.892Z,13.53
2019-03-24T12:09:34.269Z,12.33
2019-03-24T12:12:15.631Z,9.80
2019-03-24T12:14:54.741Z,10.90
2019-03-24T12:17:42.809Z,8.97
2019-03-24T12:20:30.941Z,12.27
2019-03-24T12:23:38.982Z,12.13
2019-03-24T12:26:27.101Z,7.80
2019-03-24T12:29:15.168Z,10.13
2019-03-24T12:32:03.335Z,8.43
2019-03-24T12:34:51.579Z,3.93
2019-03-24T12:37:39.644Z,6.40
2019-03-24T12:40:27.767Z,8.93
2019-03-24T12:43:22.253Z,6.73
2019-03-24T12:46:11.879Z,7.67
2019-03-24T12:48:53.052Z,7.90
2019-03-24T12:51:34.167Z,16.47
2019-03-24T12:54:14.831Z,11.00
2019-03-24T12:56:56.740Z,7.23
2019-03-24T12:59:37.861Z,7.47
2019-03-24T13:02:19.307Z,5.50
2019-03-24T13:05:00.425Z,10.47
2019-03-24T13:07:41.626Z,4.43
2019-03-24T13:10:22.914Z,7.40
2019-03-24T13:12:51.660Z,7.70
2019-03-24T13:15:39.856Z,7.10
2019-03-24T13:18:08.987Z,6.00
2019-03-24T13:20:57.252Z,10.30
2019-03-24T13:23:45.437Z,8.10
2019-03-24T13:26:53.766Z,9.03
2019-03-24T13:30:02.005Z,10.07
2019-03-24T13:32:50.195Z,7.97
2019-03-24T13:35:58.283Z,8.60
2019-03-24T13:38:46.384Z,6.60
2019-03-24T13:41:54.453Z,9.23
2019-03-24T13:44:42.709Z,8.30
2019-03-24T13:47:23.227Z,6.30
2019-03-24T13:50:04.604Z,7.17
2019-03-24T13:52:45.939Z,5.80
2019-03-24T13:55:27.249Z,5.57
2019-03-24T13:57:56.128Z,6.07
2019-03-24T14:00:44.286Z,5.17
2019-03-24T14:03:32.335Z,5.83
2019-03-24T14:06:20.402Z,7.03
2019-03-24T14:09:08.531Z,6.60
2019-03-24T14:11:56.614Z,5.87
2019-03-24T14:14:25.447Z,6.73
2019-03-24T14:16:54.191Z,9.23
2019-03-24T14:19:23.019Z,6.80
2019-03-24T14:21:51.872Z,9.33
2019-03-24T14:24:20.713Z,8.67
2019-03-24T14:26:49.610Z,9.50
2019-03-24T14:29:18.595Z,4.23
2019-03-24T14:31:47.373Z,5.83
2019-03-24T14:34:16.166Z,3.63
2019-03-24T14:36:44.925Z,5.27
2019-03-24T14:39:13.641Z,6.00
2019-03-24T14:41:42.376Z,6.23
2019-03-24T14:44:11.100Z,7.20
2019-03-24T14:46:39.938Z,8.23
2019-03-24T14:49:08.706Z,3.37
2019-03-24T14:51:37.422Z,4.63
2019-03-24T14:54:06.167Z,4.57
2019-03-24T14:56:34.911Z,7.83
2019-03-24T14:59:03.795Z,4.60
2019-03-24T15:01:32.599Z,3.97
2019-03-24T15:04:01.337Z,4.53
2019-03-24T15:06:30.207Z,10.20
2019-03-24T15:08:58.945Z,4.67
2019-03-24T15:11:27.853Z,8.10
2019-03-24T15:13:56.698Z,7.73
2019-03-24T15:16:25.571Z,5.90
2019-03-24T15:18:54.404Z,4.83
2019-03-24T15:21:23.434Z,6.80
2019-03-24T15:23:52.334Z,9.30
2019-03-24T15:26:21.119Z,7.20
2019-03-24T15:28:49.929Z,8.57
2019-03-24T15:31:18.771Z,6.53
2019-03-24T15:33:47.583Z,13.13
2019-03-24T15:36:16.439Z,11.90
2019-03-24T15:38:45.219Z,7.90
2019-03-24T15:41:14.098Z,7.73
2019-03-24T15:43:42.946Z,8.23
2019-03-24T15:46:11.810Z,13.97
2019-03-24T15:48:40.705Z,6.43
2019-03-24T15:51:16.921Z,10.00
2019-03-24T15:53:39.915Z,11.63
2019-03-24T15:56:08.760Z,7.43
2019-03-24T15:58:37.708Z,8.87
2019-03-24T16:01:06.446Z,13.00
2019-03-24T16:03:35.283Z,10.40
2019-03-24T16:06:04.070Z,10.77
2019-03-24T16:08:32.825Z,8.30
2019-03-24T16:11:01.643Z,9.93
2019-03-24T16:13:30.435Z,10.23
2019-03-24T16:15:59.265Z,9.30
2019-03-24T16:18:28.135Z,12.37
2019-03-24T16:20:57.061Z,10.03
2019-03-24T16:23:25.863Z,10.73
2019-03-24T16:25:55.722Z,11.77
2019-03-24T16:28:24.753Z,11.37
2019-03-24T16:30:53.551Z,12.70
2019-03-24T16:33:22.348Z,11.20
2019-03-24T16:35:51.084Z,10.37
2019-03-24T16:38:19.878Z,13.17
2019-03-24T16:40:48.770Z,10.17
2019-03-24T16:43:17.481Z,7.67
2019-03-24T16:45:47.366Z,10.43
2019-03-24T16:48:16.286Z,11.70
2019-03-24T16:50:45.189Z,7.77
2019-03-24T16:53:14.020Z,8.83
2019-03-24T16:55:42.877Z,10.03
2019-03-24T16:58:11.649Z,7.83
2019-03-24T17:00:40.513Z,6.10
2019-03-24T17:03:09.388Z,6.07
2019-03-24T17:05:38.214Z,11.00
2019-03-24T17:08:07.042Z,5.67
2019-03-24T17:10:35.915Z,5.93
2019-03-24T17:13:04.764Z,5.83
2019-03-24T17:15:33.589Z,7.20
2019-03-24T17:18:02.502Z,10.13
2019-03-24T17:20:31.425Z,8.63
2019-03-24T17:23:00.770Z,7.67
2019-03-24T17:25:29.674Z,4.67
2019-03-24T17:27:58.451Z,4.60
2019-03-24T17:30:27.245Z,5.87
2019-03-24T17:32:56.042Z,8.13
2019-03-24T17:35:24.886Z,5.60
2019-03-24T17:37:53.639Z,5.17
2019-03-24T17:40:22.392Z,6.20
2019-03-24T17:42:51.201Z,7.87
2019-03-24T17:45:20.052Z,7.57
2019-03-24T17:47:48.939Z,9.67
2019-03-24T17:50:17.857Z,9.83
2019-03-24T17:52:46.663Z,7.60
2019-03-24T17:55:15.513Z,7.03
2019-03-24T17:57:44.447Z,9.37
2019-03-24T18:00:15.383Z,10.27
2019-03-24T18:02:44.203Z,8.20
2019-03-24T18:05:13.173Z,10.47
2019-03-24T18:07:42.050Z,7.73
2019-03-24T18:10:12.208Z,13.73
2019-03-24T18:12:41.162Z,7.87
2019-03-24T18:15:10.404Z,9.97
2019-03-24T18:17:39.269Z,12.50
2019-03-24T18:20:10.054Z,14.23
2019-03-24T18:22:39.185Z,15.30
2019-03-24T18:25:09.630Z,11.70
2019-03-24T18:27:38.566Z,12.60
2019-03-24T18:30:09.834Z,10.13
2019-03-24T18:32:38.708Z,14.90
2019-03-24T18:35:09.128Z,12.03
2019-03-24T18:37:38.073Z,10.07
2019-03-24T18:40:09.562Z,11.33
2019-03-24T18:42:38.432Z,10.60
2019-03-24T18:45:10.339Z,10.50
2019-03-24T18:47:39.463Z,8.90
2019-03-24T18:50:10.054Z,12.63
2019-03-24T18:52:38.886Z,9.90
2019-03-24T18:55:08.353Z,11.60
2019-03-24T18:57:38.809Z,11.57
2019-03-24T19:00:08.813Z,9.27
2019-03-24T19:02:37.705Z,10.77
2019-03-24T19:05:07.013Z,9.70
2019-03-24T19:07:35.935Z,12.83
2019-03-24T19:10:06.917Z,9.13
2019-03-24T19:12:36.027Z,10.80
2019-03-24T19:15:10.067Z,11.70
2019-03-24T19:17:38.937Z,12.17
2019-03-24T19:20:08.476Z,9.90
2019-03-24T19:22:37.380Z,14.53
2019-03-24T19:25:07.185Z,7.00
2019-03-24T19:27:36.123Z,10.77
2019-03-24T19:30:07.723Z,9.93
2019-03-24T19:32:36.661Z,11.33
2019-03-24T19:35:06.913Z,12.00
2019-03-24T19:37:36.081Z,12.80
2019-03-24T19:40:13.725Z,11.90
2019-03-24T19:42:42.631Z,9.30
2019-03-24T19:45:11.797Z,9.77
2019-03-24T19:47:40.623Z,9.67
2019-03-24T19:50:09.923Z,9.63
2019-03-24T19:52:44.588Z,9.77
2019-03-24T19:55:09.514Z,13.27
2019-03-24T19:57:42.142Z,9.53
2019-03-24T20:00:11.264Z,5.77
2019-03-24T20:02:40.167Z,9.07
2019-03-24T20:05:09.451Z,10.47
2019-03-24T20:07:47.508Z,11.70
2019-03-24T20:10:09.092Z,11.37
2019-03-24T20:12:38.057Z,11.47
2019-03-24T20:15:07.418Z,11.37
2019-03-24T20:17:36.273Z,12.17
2019-03-24T20:20:06.143Z,12.07
2019-03-24T20:22:35.065Z,10.00
2019-03-24T20:25:05.958Z,10.10
2019-03-24T20:27:34.903Z,14.63
2019-03-24T20:30:07.080Z,9.47
2019-03-24T20:32:36.098Z,13.87
2019-03-24T20:35:06.845Z,11.57
2019-03-24T20:37:36.069Z,9.90
2019-03-24T20:40:05.785Z,10.57
2019-03-24T20:42:34.736Z,10.90
2019-03-24T20:45:06.110Z,12.97
2019-03-24T20:47:35.050Z,11.67
2019-03-24T20:50:08.933Z,11.80
2019-03-24T20:52:37.706Z,12.20
2019-03-24T20:55:07.025Z,13.57
2019-03-24T20:57:35.887Z,11.57
2019-03-24T21:00:07.294Z,20.03
2019-03-24T21:02:36.264Z,15.27
2019-03-24T21:05:05.623Z,9.90
2019-03-24T21:07:41.465Z,11.97
2019-03-24T21:10:10.614Z,12.80
2019-03-24T21:12:39.550Z,11.00
2019-03-24T21:15:11.264Z,15.37
2019-03-24T21:17:39.414Z,14.60
2019-03-24T21:20:08.546Z,14.30
2019-03-24T21:22:37.382Z,16.10
2019-03-24T21:25:06.331Z,14.87
2019-03-24T21:27:35.040Z,12.17
2019-03-24T21:30:05.832Z,15.33
2019-03-24T21:32:34.563Z,12.73
2019-03-24T21:35:05.722Z,17.00
2019-03-24T21:37:34.669Z,17.63
2019-03-24T21:40:06.279Z,14.07
2019-03-24T21:42:35.422Z,12.57
2019-03-24T21:45:07.186Z,11.10
2019-03-24T21:47:36.166Z,12.80
2019-03-24T21:50:06.341Z,17.17
2019-03-24T21:52:35.298Z,13.53
2019-03-24T21:55:05.013Z,16.83
2019-03-24T21:57:33.944Z,17.93
2019-03-24T22:00:07.378Z,14.27
2019-03-24T22:02:36.292Z,12.50
2019-03-24T22:05:05.735Z,9.87
2019-03-24T22:07:34.465Z,13.27
2019-03-24T22:10:05.297Z,14.40
2019-03-24T22:12:34.063Z,11.77
2019-03-24T22:15:04.516Z,16.17
2019-03-24T22:17:33.376Z,10.40
2019-03-24T22:20:02.357Z,7.90
2019-03-24T22:22:31.314Z,12.73
2019-03-24T22:25:00.360Z,15.33
2019-03-24T22:27:29.151Z,11.00
2019-03-24T22:29:58.063Z,10.80
2019-03-24T22:32:27.014Z,17.93
2019-03-24T22:34:55.817Z,14.63
2019-03-24T22:37:24.557Z,13.63
2019-03-24T22:39:53.308Z,13.50
2019-03-24T22:42:22.215Z,15.50
2019-03-24T22:44:51.037Z,14.73
2019-03-24T22:47:19.770Z,13.93
2019-03-24T22:49:48.528Z,13.60
2019-03-24T22:52:17.482Z,13.93
2019-03-24T22:54:46.317Z,15.93
2019-03-24T22:57:15.114Z,16.97
2019-03-24T22:59:44.017Z,16.47
2019-03-24T23:02:12.885Z,14.67
2019-03-24T23:04:41.767Z,10.87
2019-03-24T23:07:10.651Z,11.30
2019-03-24T23:09:39.474Z,14.10
2019-03-24T23:12:08.328Z,14.40
2019-03-24T23:14:37.237Z,15.60
2019-03-24T23:17:06.023Z,13.37
2019-03-24T23:19:34.979Z,17.10
2019-03-24T23:22:03.938Z,17.17
2019-03-24T23:24:32.834Z,17.27
2019-03-24T23:27:01.634Z,16.53
2019-03-24T23:29:30.459Z,16.83
2019-03-24T23:31:59.335Z,20.83
2019-03-24T23:34:28.138Z,12.83
2019-03-24T23:36:56.912Z,18.03
2019-03-24T23:39:25.750Z,16.10
2019-03-24T23:41:54.602Z,23.87
2019-03-24T23:44:23.392Z,14.53
2019-03-24T23:46:52.217Z,15.23
2019-03-24T23:49:21.097Z,15.53
2019-03-24T23:51:49.855Z,13.23
2019-03-24T23:54:26.984Z,18.47
2019-03-24T23:56:49.055Z,14.03
2019-03-24T23:59:17.832Z,17.53
